Strona główna
Zdjęcia satelitarne 15-dni prognozyKlimatMeteorologia morska Cyklony Błyskawica LotniskoFAQ Gazetka O
Pogoda : Europa Afryka Ameryka Północna Ameryka Południowa Azja Australia-Oceania Inny
Języki Kontakt

Albert, Francja

Albert-Picardie

Szerokość geograficzna: 49-58-21N, Długość geograficzna: 002-41-29E, wysokość: 111 m


METAR: LFAQ 171230Z AUTO VRB06KT 9999 NSC 17/02 Q1020
short-TAF: LFAQ 170800Z 1709/1718 18006KT CAVOK BECMG 1716/1718 28010KT
long-TAF: przestarzały (48331 godziny)

czas: 14:56 (12:56 UTC)

Aktualna obserwacja pogody

Raport powstał 26 minut temu, godzina 12:30 UTC  
Wiatr 06 kt z kierunków zmiennych
Temperatura 17°C
Wilgotność 36%
Ciśnienie 1020 hPa
Widzialność 10 km lub więcej

Jednostka miary

Prognoza

Raport powstał 4 godziny i 41 minut temu, godzina 08:15 UTC  
Prognoza ważna od 17 godzina 09 UTC do 17 godzina 18 UTC
Wiatr 06 kt od południe
Widzialność 10 km lub więcej
Brak chmur poniżej 1500 m i brak chmur cumulonimbus
Stopniowe zmiany
od 17 godzina 16 UTC do 17 godzina 18 UTC
Wiatr 10 kt od zachód
Informacje na tej stronie internetowej podlegają klauzuli o wyłączeniu odpowiedzialności
Pogoda : Europa Afryka Ameryka Północna Ameryka Południowa Azja Australia-Oceania Inny
Zdjęcia satelitarne 15-dni prognozyKlimatMeteorologia morska Cyklony Błyskawica LotniskoFAQ Języki Kontakt Gazetka O